Time;durP1;ratioP1;P1;durP2;ratioP2;P2;SDS_P1;SDS_P2;PMS_P1;PMS_P2;Temp;Humidity;BMP_temperature;BMP_pressure;BME280_temperature;BME280_humidity;BME280_pressure;Samples;Min_cycle;Max_cycle;Signal;HPM_P1;HPM_P2
2021/07/15 00:01:09;;;;;;;17.50;2.58;;;16.20;99.90;;;;;;4775467;30;20213;-96
2021/07/15 00:03:39;;;;;;;18.40;2.45;;;16.20;99.90;;;;;;4790401;30;20191;-95
2021/07/15 00:06:14;;;;;;;17.88;2.53;;;16.10;99.90;;;;;;4774943;30;20191;-96
2021/07/15 00:08:44;;;;;;;16.38;2.90;;;16.10;99.90;;;;;;4789150;30;20188;-95
2021/07/15 00:11:17;;;;;;;32.08;3.20;;;16.10;99.90;;;;;;4774148;30;20180;-96
2021/07/15 00:13:43;;;;;;;34.53;3.80;;;16.00;99.90;;;;;;4790385;30;20192;-95
2021/07/15 00:16:13;;;;;;;22.88;3.00;;;15.90;99.90;;;;;;4782732;24;20268;-96
2021/07/15 00:18:48;;;;;;;28.48;2.67;;;15.80;99.90;;;;;;4753845;30;20252;-96
2021/07/15 00:21:28;;;;;;;16.90;3.50;;;15.80;99.90;;;;;;4755198;30;20193;-96
2021/07/15 00:23:57;;;;;;;19.25;2.97;;;15.80;99.90;;;;;;4838651;24;20245;-96
2021/07/15 00:26:35;;;;;;;25.02;3.40;;;15.80;99.90;;;;;;4752249;30;20243;-96
2021/07/15 00:29:07;;;;;;;17.05;3.50;;;15.80;99.90;;;;;;4737271;30;20500;-96
2021/07/15 00:31:33;;;;;;;21.95;3.13;;;15.80;99.90;;;;;;5199811;24;20257;-96
2021/07/15 00:34:03;;;;;;;18.60;2.70;;;15.80;99.90;;;;;;4754021;30;20185;-96
2021/07/15 00:36:33;;;;;;;12.00;3.05;;;15.90;99.90;;;;;;4754873;30;20198;-96
2021/07/15 00:38:59;;;;;;;21.77;2.60;;;15.90;99.90;;;;;;4768071;24;20241;-96
2021/07/15 00:41:27;;;;;;;24.80;3.25;;;15.80;99.90;;;;;;4754260;30;20173;-96
2021/07/15 00:43:54;;;;;;;20.33;3.30;;;15.90;99.90;;;;;;4753190;30;20211;-96
2021/07/15 00:46:20;;;;;;;19.70;3.30;;;15.90;99.90;;;;;;4753097;30;20177;-95
2021/07/15 00:48:46;;;;;;;16.48;3.67;;;15.90;99.90;;;;;;4750348;30;20684;-96
2021/07/15 00:51:23;;;;;;;21.73;3.30;;;15.90;99.90;;;;;;4749952;30;20181;-96
2021/07/15 00:53:51;;;;;;;22.50;2.85;;;16.00;99.90;;;;;;4752081;30;20191;-96
2021/07/15 00:56:22;;;;;;;15.68;3.20;;;15.90;99.90;;;;;;4750796;30;20193;-95
2021/07/15 00:58:50;;;;;;;16.10;3.08;;;15.90;99.90;;;;;;4750527;30;20237;-95
2021/07/15 01:01:18;;;;;;;18.25;3.42;;;15.90;99.90;;;;;;4749908;30;20269;-95
2021/07/15 01:03:49;;;;;;;20.30;3.53;;;15.90;99.90;;;;;;4749764;30;20197;-96
2021/07/15 01:06:16;;;;;;;12.43;3.28;;;15.90;99.90;;;;;;4751051;30;20182;-96
2021/07/15 01:09:00;;;;;;;16.65;3.25;;;15.90;99.90;;;;;;4751172;30;20227;-96
2021/07/15 01:12:06;;;;;;;17.38;3.05;;;15.90;99.90;;;;;;4749774;30;20209;-96
2021/07/15 01:14:42;;;;;;;18.17;3.65;;;15.90;99.90;;;;;;4749583;30;20189;-95
2021/07/15 01:17:15;;;;;;;17.92;3.70;;;15.90;99.90;;;;;;4749561;30;20181;-96
2021/07/15 01:20:10;;;;;;;12.57;3.17;;;15.90;99.90;;;;;;4734794;30;20181;-96
2021/07/15 01:23:01;;;;;;;13.85;3.78;;;15.90;99.90;;;;;;4750881;30;20213;-96
2021/07/15 01:25:51;;;;;;;20.55;3.05;;;15.80;99.90;;;;;;4751041;30;20162;-96
2021/07/15 01:28:42;;;;;;;21.00;3.20;;;15.70;99.90;;;;;;4750899;30;20235;-95
2021/07/15 01:31:10;;;;;;;21.38;3.60;;;15.70;99.90;;;;;;4749976;30;20190;-95
2021/07/15 01:33:39;;;;;;;23.08;3.83;;;15.70;99.90;;;;;;4752168;30;20220;-96
2021/07/15 01:36:12;;;;;;;31.35;4.22;;;15.70;99.90;;;;;;4750528;30;20657;-96
2021/07/15 01:38:49;;;;;;;14.35;3.22;;;15.70;99.90;;;;;;4749043;30;20241;-96
2021/07/15 01:41:44;;;;;;;18.83;3.20;;;15.70;99.90;;;;;;4750004;30;20228;-96
2021/07/15 01:44:17;;;;;;;23.15;3.33;;;15.70;99.90;;;;;;4741190;30;20204;-96
2021/07/15 01:46:44;;;;;;;19.02;3.78;;;15.70;99.90;;;;;;4749701;30;20257;-96
2021/07/15 01:49:12;;;;;;;23.83;3.40;;;15.70;99.90;;;;;;4747272;30;20200;-96
2021/07/15 01:51:38;;;;;;;24.15;3.67;;;15.70;99.90;;;;;;4741864;30;20193;-96
2021/07/15 01:54:12;;;;;;;14.77;3.22;;;15.60;99.90;;;;;;4742100;30;20255;-96
2021/07/15 01:56:41;;;;;;;15.43;3.15;;;15.60;99.90;;;;;;4746263;30;20269;-96
2021/07/15 01:59:09;;;;;;;15.70;3.10;;;15.50;99.90;;;;;;4744998;30;20233;-96
2021/07/15 02:04:17;;;;;;;14.68;2.78;;;15.50;99.90;;;;;;4901761;24;20234;-97
2021/07/15 02:22:30;;;;;;;26.75;3.00;;;15.30;99.90;;;;;;5029605;24;20309;-96
2021/07/15 02:25:11;;;;;;;34.45;3.33;;;15.20;99.90;;;;;;4778226;30;20185;-96
2021/07/15 02:27:58;;;;;;;22.88;3.65;;;15.20;99.90;;;;;;4762510;30;20188;-96
2021/07/15 02:31:40;;;;;;;36.10;4.15;;;15.20;99.90;;;;;;4796026;30;20176;-96
2021/07/15 02:34:27;;;;;;;39.53;3.42;;;15.20;99.90;;;;;;4775344;30;20183;-96
2021/07/15 02:37:25;;;;;;;31.42;4.38;;;15.10;99.90;;;;;;4780495;30;20251;-96
2021/07/15 02:40:18;;;;;;;28.23;3.45;;;15.10;99.90;;;;;;4780673;30;20224;-96
2021/07/15 04:10:23;;;;;;;19.00;3.40;;;15.00;99.90;;;;;;5487051;24;20248;-96
2021/07/15 04:28:52;;;;;;;21.75;3.22;;;15.20;99.90;;;;;;4850263;24;20250;-96
2021/07/15 04:34:34;;;;;;;21.90;3.17;;;15.20;99.90;;;;;;4785444;30;20190;-96
2021/07/15 04:37:02;;;;;;;19.33;3.05;;;15.20;99.90;;;;;;4772809;30;20195;-96
2021/07/15 04:50:09;;;;;;;8.50;2.10;;;15.60;99.90;;;;;;3956391;24;20510;31
2021/07/15 05:08:41;;;;;;;6.13;2.42;;;16.50;99.90;;;;;;4793980;30;20206;-96
2021/07/15 05:11:13;;;;;;;9.50;2.45;;;16.50;99.90;;;;;;4779135;30;20176;-96
2021/07/15 05:13:41;;;;;;;13.60;2.25;;;16.60;99.90;;;;;;4778956;30;20221;-96
2021/07/15 05:16:08;;;;;;;19.02;2.30;;;16.50;99.90;;;;;;4778759;30;20196;-96
2021/07/15 05:18:36;;;;;;;16.05;2.40;;;16.50;99.90;;;;;;4777446;30;20253;-96
2021/07/15 05:21:08;;;;;;;10.43;2.30;;;16.40;99.90;;;;;;4778777;30;20277;-96
2021/07/15 05:23:41;;;;;;;10.57;2.13;;;16.40;99.90;;;;;;4777966;30;20180;-96
2021/07/15 05:26:12;;;;;;;9.35;2.13;;;16.40;99.90;;;;;;4778887;30;20191;-96
2021/07/15 05:31:26;;;;;;;5.72;1.92;;;16.40;99.90;;;;;;4938281;24;20283;-96
2021/07/15 05:41:41;;;;;;;7.40;1.98;;;16.50;99.90;;;;;;4826502;29;20226;-96
2021/07/15 05:44:29;;;;;;;4.22;1.83;;;16.60;99.90;;;;;;5015062;24;20238;-96
2021/07/15 05:46:58;;;;;;;6.93;2.00;;;16.70;99.90;;;;;;4795873;29;20171;-96
2021/07/15 05:49:49;;;;;;;6.13;2.10;;;16.80;99.90;;;;;;4795173;30;20175;-96
2021/07/15 06:15:52;;;;;;;7.93;1.70;;;17.30;99.90;;;;;;4769605;30;20251;-96
2021/07/15 06:18:25;;;;;;;9.75;2.08;;;17.40;99.90;;;;;;4756786;30;20291;-96
2021/07/15 06:20:51;;;;;;;5.82;2.22;;;17.40;99.90;;;;;;4751474;30;20192;-96
2021/07/15 06:23:17;;;;;;;7.35;1.90;;;17.50;99.90;;;;;;4749733;30;20184;-96
2021/07/15 06:25:43;;;;;;;7.00;2.20;;;17.60;99.90;;;;;;4749662;30;20654;-96
2021/07/15 06:28:10;;;;;;;6.93;2.80;;;17.60;99.90;;;;;;4755207;30;20212;-96
2021/07/15 06:30:41;;;;;;;6.70;2.45;;;17.60;99.90;;;;;;4753775;30;20209;-96
2021/07/15 06:33:07;;;;;;;4.05;2.00;;;17.70;99.90;;;;;;4752971;30;20184;-96
2021/07/15 06:35:40;;;;;;;6.70;2.15;;;17.70;99.90;;;;;;4749528;30;20185;-96
2021/07/15 06:38:08;;;;;;;7.80;2.38;;;17.80;99.90;;;;;;4757379;30;20220;-96
2021/07/15 06:40:42;;;;;;;6.78;2.10;;;17.80;99.90;;;;;;4750468;30;20177;-96
2021/07/15 06:43:08;;;;;;;5.25;2.20;;;17.90;99.90;;;;;;4748651;30;20172;-96
2021/07/15 06:45:36;;;;;;;7.97;1.80;;;17.90;99.90;;;;;;4757145;30;20217;-96
2021/07/15 06:48:07;;;;;;;5.05;1.88;;;18.10;99.90;;;;;;4759071;30;20236;-96
2021/07/15 06:50:39;;;;;;;7.25;2.15;;;18.20;99.90;;;;;;4756821;30;20176;-96
2021/07/15 06:53:09;;;;;;;6.30;1.95;;;18.30;99.90;;;;;;4755905;30;20275;-96
2021/07/15 06:58:58;;;;;;;6.85;1.70;;;18.30;99.90;;;;;;4767042;30;20305;-96
2021/07/15 07:09:48;;;;;;;5.15;1.60;;;19.30;99.90;;;;;;5141399;24;20246;-96
2021/07/15 07:12:15;;;;;;;2.22;1.42;;;19.60;99.90;;;;;;4779623;30;20221;-96
2021/07/15 07:14:55;;;;;;;8.60;2.10;;;19.80;99.90;;;;;;4789626;30;20266;-96
2021/07/15 07:17:37;;;;;;;4.75;1.50;;;20.00;99.90;;;;;;4778793;30;20193;-96
2021/07/15 07:20:07;;;;;;;4.57;1.30;;;20.20;99.90;;;;;;4759170;30;20219;-96
2021/07/15 07:25:15;;;;;;;3.10;1.65;;;20.50;99.90;;;;;;5449376;24;20241;-96
2021/07/15 07:28:00;;;;;;;2.45;1.42;;;20.60;99.90;;;;;;4781945;30;20243;-96
2021/07/15 07:30:29;;;;;;;4.57;1.42;;;20.70;99.90;;;;;;4760627;30;20188;-96
2021/07/15 07:36:56;;;;;;;1.83;1.27;;;20.90;99.90;;;;;;4726916;30;20289;-96
2021/07/15 08:00:34;;;;;;;2.15;1.15;;;20.60;99.90;;;;;;4829908;24;20716;-96
2021/07/15 08:06:37;;;;;;;4.00;1.20;;;20.70;99.90;;;;;;4789793;30;20240;-96
2021/07/15 08:14:15;;;;;;;3.95;1.50;;;21.10;99.90;;;;;;4765778;30;20310;-96
2021/07/15 08:16:50;;;;;;;4.88;1.25;;;21.30;99.90;;;;;;4743207;30;20185;-96
2021/07/15 08:19:17;;;;;;;1.50;1.02;;;21.50;99.90;;;;;;4744193;30;20235;-96
2021/07/15 08:21:43;;;;;;;1.40;1.15;;;21.60;99.90;;;;;;4743298;30;20216;-96
2021/07/15 08:24:10;;;;;;;4.22;1.10;;;21.60;99.90;;;;;;4740429;30;20196;-96
2021/07/15 08:26:36;;;;;;;1.90;1.17;;;21.60;99.90;;;;;;4738758;30;20184;-96
2021/07/15 08:29:03;;;;;;;2.95;1.10;;;21.60;99.90;;;;;;4741938;30;20212;-96
2021/07/15 08:31:29;;;;;;;2.20;1.35;;;21.60;99.90;;;;;;4746749;30;20188;-96
2021/07/15 08:33:55;;;;;;;3.00;1.40;;;21.40;99.90;;;;;;4743945;30;20283;-96
2021/07/15 08:36:21;;;;;;;2.05;1.10;;;21.40;99.90;;;;;;4745893;30;20231;-96
2021/07/15 08:38:50;;;;;;;3.40;1.40;;;21.40;99.90;;;;;;4744319;30;20228;-96
2021/07/15 08:41:17;;;;;;;5.20;1.38;;;21.30;99.90;;;;;;4745136;30;20181;-94
2021/07/15 08:43:43;;;;;;;4.10;1.30;;;21.50;99.90;;;;;;4743420;30;20272;-95
2021/07/15 08:46:13;;;;;;;7.30;1.20;;;21.80;99.90;;;;;;4743969;30;20188;-96
2021/07/15 08:48:47;;;;;;;3.38;1.20;;;22.00;99.90;;;;;;4747655;30;20216;-96
2021/07/15 08:51:14;;;;;;;2.20;1.20;;;22.30;99.90;;;;;;4744322;30;20188;-96
2021/07/15 08:53:42;;;;;;;5.63;1.27;;;22.40;99.90;;;;;;4744689;30;20184;-96
2021/07/15 08:58:53;;;;;;;1.38;1.00;;;22.70;99.90;;;;;;4758583;30;20228;-95
2021/07/15 09:01:19;;;;;;;1.33;1.00;;;22.50;99.90;;;;;;4744509;30;20275;-96
2021/07/15 09:03:46;;;;;;;2.72;0.93;;;22.40;99.90;;;;;;4741758;30;20203;-96
2021/07/15 09:06:13;;;;;;;3.40;1.17;;;22.40;99.90;;;;;;4744849;30;20211;-96
2021/07/15 09:08:39;;;;;;;2.97;0.98;;;22.40;99.90;;;;;;4743763;30;20236;-96
2021/07/15 09:11:06;;;;;;;3.15;1.23;;;22.40;99.90;;;;;;4744147;30;20191;-96
2021/07/15 09:13:35;;;;;;;2.35;1.27;;;22.50;99.90;;;;;;4741697;30;20262;-95
2021/07/15 09:16:10;;;;;;;2.38;1.00;;;22.70;99.90;;;;;;4736657;30;20185;-96
2021/07/15 09:18:53;;;;;;;2.00;1.00;;;22.80;99.90;;;;;;4737160;30;20223;-95
2021/07/15 09:21:24;;;;;;;2.47;1.05;;;22.50;99.90;;;;;;4737390;30;20189;-96
2021/07/15 09:23:49;;;;;;;1.60;0.80;;;22.30;99.90;;;;;;4736607;30;20181;-96
2021/07/15 09:26:16;;;;;;;2.53;1.20;;;22.30;99.90;;;;;;4736530;30;20181;-96
2021/07/15 09:28:42;;;;;;;2.30;0.93;;;22.40;99.90;;;;;;4736788;30;20235;-95
2021/07/15 09:31:16;;;;;;;1.45;1.00;;;22.70;99.90;;;;;;4737837;30;20252;-95
2021/07/15 09:33:42;;;;;;;1.00;0.90;;;22.70;99.90;;;;;;4735987;30;20192;-95
2021/07/15 09:36:14;;;;;;;4.07;1.08;;;22.70;99.90;;;;;;4735786;30;20196;-95
2021/07/15 09:38:40;;;;;;;1.77;0.90;;;22.70;99.90;;;;;;4735619;30;20217;-95
2021/07/15 09:41:06;;;;;;;3.58;0.95;;;22.50;99.90;;;;;;4736100;30;20185;-96
2021/07/15 09:43:37;;;;;;;8.57;1.10;;;22.30;99.90;;;;;;4737669;30;20653;-95
2021/07/15 09:46:12;;;;;;;1.70;1.00;;;22.20;99.90;;;;;;4738004;30;20239;-95
2021/07/15 09:48:40;;;;;;;7.00;0.95;;;22.40;99.90;;;;;;4737324;30;20220;-95
2021/07/15 09:51:12;;;;;;;2.15;0.90;;;22.60;99.90;;;;;;4736283;30;20212;-96
2021/07/15 09:53:41;;;;;;;1.30;1.00;;;23.00;99.90;;;;;;4737568;30;20185;-96
2021/07/15 09:56:17;;;;;;;2.25;0.95;;;23.20;99.90;;;;;;4736468;30;20189;-95
2021/07/15 09:58:47;;;;;;;2.25;0.95;;;23.40;99.90;;;;;;4737605;30;20245;-96
2021/07/15 10:01:20;;;;;;;3.35;1.10;;;23.50;99.90;;;;;;4736066;30;20185;-95
2021/07/15 10:03:52;;;;;;;2.72;0.80;;;23.50;99.90;;;;;;4737000;30;20182;-96
2021/07/15 10:06:19;;;;;;;1.27;0.77;;;23.50;99.90;;;;;;4737565;30;20182;-94
2021/07/15 10:08:52;;;;;;;2.30;0.85;;;23.70;99.90;;;;;;4736969;30;20213;-96
2021/07/15 10:11:30;;;;;;;2.72;0.80;;;23.80;99.90;;;;;;4736603;30;20185;-96
2021/07/15 10:14:11;;;;;;;1.17;1.08;;;23.80;99.90;;;;;;4735399;30;20243;-95
2021/07/15 10:16:42;;;;;;;1.58;0.98;;;23.90;99.90;;;;;;4736132;30;20291;-95
2021/07/15 10:19:21;;;;;;;3.60;0.80;;;23.90;99.90;;;;;;4737258;30;20309;-96
2021/07/15 10:21:59;;;;;;;1.48;0.90;;;23.90;99.90;;;;;;4737886;30;20181;-95
2021/07/15 10:24:26;;;;;;;1.35;0.82;;;23.90;99.90;;;;;;4740870;30;20177;-95
2021/07/15 10:26:58;;;;;;;1.17;1.00;;;23.90;99.90;;;;;;4742033;30;20190;-95
2021/07/15 10:29:25;;;;;;;1.90;0.80;;;24.00;99.90;;;;;;4738916;30;20209;-95
2021/07/15 10:31:53;;;;;;;1.35;0.90;;;24.10;99.90;;;;;;4738027;30;20193;-93
2021/07/15 10:34:19;;;;;;;2.13;1.00;;;24.10;99.90;;;;;;4737772;30;20185;-95
2021/07/15 10:36:54;;;;;;;1.20;0.80;;;23.90;99.90;;;;;;4737437;30;20177;-95
2021/07/15 10:39:22;;;;;;;6.63;1.23;;;23.80;99.90;;;;;;4737154;30;20713;-96
2021/07/15 10:41:50;;;;;;;2.53;0.98;;;23.70;99.90;;;;;;4737210;30;20178;-93
2021/07/15 10:44:17;;;;;;;2.85;0.90;;;23.60;99.90;;;;;;4737350;30;20178;-96
2021/07/15 10:46:42;;;;;;;4.18;1.00;;;23.60;99.90;;;;;;4737220;30;20655;-96
2021/07/15 10:49:09;;;;;;;2.20;1.00;;;23.70;99.90;;;;;;4737098;30;20213;-95
2021/07/15 10:51:36;;;;;;;4.65;1.08;;;23.80;99.90;;;;;;4737144;30;20216;-96
2021/07/15 10:54:04;;;;;;;1.10;0.95;;;23.90;99.90;;;;;;4736929;30;20177;-96
2021/07/15 10:56:30;;;;;;;2.72;1.10;;;24.10;99.90;;;;;;4737163;30;20665;-94
2021/07/15 10:58:57;;;;;;;1.50;0.93;;;24.10;99.90;;;;;;4737484;30;20233;-95
2021/07/15 11:01:36;;;;;;;1.05;0.90;;;24.10;99.90;;;;;;4736933;30;20632;-94
2021/07/15 11:04:09;;;;;;;1.63;0.77;;;24.20;99.90;;;;;;4737325;30;20183;-93
2021/07/15 11:06:39;;;;;;;3.72;0.90;;;24.30;99.90;;;;;;4736899;30;20184;-93
2021/07/15 11:09:06;;;;;;;2.00;0.80;;;24.50;99.90;;;;;;4737004;30;20710;-95
2021/07/15 11:11:42;;;;;;;3.13;0.88;;;24.50;99.90;;;;;;4736901;30;20182;-94
2021/07/15 11:14:49;;;;;;;2.67;0.80;;;24.70;99.90;;;;;;4736875;30;20240;-95
2021/07/15 11:17:21;;;;;;;2.53;0.93;;;24.80;99.90;;;;;;4736883;30;20552;-95
2021/07/15 11:19:58;;;;;;;1.13;0.90;;;24.90;99.90;;;;;;4736924;30;20221;-95
2021/07/15 11:22:49;;;;;;;2.60;0.90;;;25.00;99.90;;;;;;4736638;30;20267;-95
2021/07/15 11:25:33;;;;;;;7.68;1.13;;;25.10;99.90;;;;;;4737637;30;20212;-94
2021/07/15 11:28:12;;;;;;;5.25;1.83;;;25.20;99.90;;;;;;4736639;30;20230;-95
2021/07/15 11:31:00;;;;;;;1.65;0.80;;;25.30;99.90;;;;;;4736604;30;20247;-94
2021/07/15 11:33:31;;;;;;;1.52;0.90;;;25.30;99.90;;;;;;4736719;30;20217;-94
2021/07/15 11:36:07;;;;;;;2.00;1.00;;;25.30;99.90;;;;;;4736408;30;20208;-95
2021/07/15 11:38:53;;;;;;;0.98;0.82;;;25.40;99.90;;;;;;4736357;30;20224;-96
2021/07/15 11:41:20;;;;;;;0.70;0.60;;;25.40;99.70;;;;;;4737697;30;20734;-95
2021/07/15 11:43:50;;;;;;;1.95;1.00;;;25.10;99.70;;;;;;4737841;30;20177;-95
2021/07/15 11:46:29;;;;;;;3.60;1.00;;;24.90;99.90;;;;;;4737547;30;20537;-95
2021/07/15 11:49:36;;;;;;;1.70;1.10;;;24.70;99.90;;;;;;4738166;30;20231;-95
2021/07/15 11:52:05;;;;;;;26.35;9.18;;;24.80;99.90;;;;;;4739158;30;20189;-95
2021/07/15 11:54:48;;;;;;;4.05;1.27;;;24.80;99.90;;;;;;4740867;30;20186;-95
2021/07/15 11:57:30;;;;;;;1.92;1.08;;;24.80;99.40;;;;;;4739707;30;20651;-94
2021/07/15 12:00:19;;;;;;;6.60;1.50;;;24.90;99.90;;;;;;4738749;30;20263;-94
2021/07/15 12:02:55;;;;;;;1.85;1.13;;;25.00;99.90;;;;;;4739761;30;20201;-95
2021/07/15 12:05:43;;;;;;;3.92;1.05;;;24.90;99.60;;;;;;4738546;30;20177;-94
2021/07/15 12:08:36;;;;;;;0.95;0.90;;;24.90;99.90;;;;;;4737840;30;20209;-94
2021/07/15 12:14:31;;;;;;;3.10;0.93;;;24.90;99.90;;;;;;4755030;30;20228;-94
2021/07/15 12:17:42;;;;;;;3.47;1.15;;;24.90;99.50;;;;;;4739234;30;20211;-92
2021/07/15 12:20:47;;;;;;;2.47;0.90;;;24.90;99.90;;;;;;4738812;30;20287;-96
2021/07/15 12:23:21;;;;;;;0.82;0.80;;;25.00;99.90;;;;;;4739166;30;20185;-95
2021/07/15 12:25:58;;;;;;;1.27;0.90;;;25.00;99.90;;;;;;4739105;30;20561;-94
2021/07/15 12:28:47;;;;;;;3.75;0.75;;;24.90;99.90;;;;;;4739097;30;20208;-93
2021/07/15 12:31:22;;;;;;;0.93;0.80;;;24.90;99.90;;;;;;4738866;30;20188;-93
2021/07/15 12:34:04;;;;;;;4.40;1.08;;;24.90;99.90;;;;;;4738773;30;20717;-94
2021/07/15 12:36:31;;;;;;;1.25;0.90;;;24.90;99.90;;;;;;4738491;30;20242;-96
2021/07/15 12:39:02;;;;;;;2.13;0.73;;;24.90;98.70;;;;;;4739972;30;20285;-96
2021/07/15 12:41:39;;;;;;;2.35;0.98;;;25.00;99.90;;;;;;4741594;30;20300;-96
2021/07/15 12:44:14;;;;;;;1.77;0.90;;;25.20;99.90;;;;;;4742461;30;20217;-96
2021/07/15 12:47:12;;;;;;;2.42;1.00;;;25.30;99.90;;;;;;4742623;30;20238;-93
2021/07/15 12:49:44;;;;;;;1.40;0.80;;;25.40;99.00;;;;;;4738995;30;20228;-96
2021/07/15 12:52:23;;;;;;;2.15;1.02;;;25.40;98.60;;;;;;4743015;30;20227;-95
2021/07/15 12:55:02;;;;;;;3.22;1.02;;;25.30;99.90;;;;;;4741007;30;20250;-93
2021/07/15 12:57:28;;;;;;;2.45;1.30;;;25.00;98.70;;;;;;4740833;30;20199;-94
2021/07/15 13:00:07;;;;;;;1.45;0.70;;;24.80;99.90;;;;;;4739274;30;20232;-94
2021/07/15 13:02:34;;;;;;;2.45;1.15;;;24.70;99.90;;;;;;4738773;30;20184;-94
2021/07/15 13:05:36;;;;;;;2.92;0.90;;;24.70;99.90;;;;;;4739024;30;20548;-96
2021/07/15 13:14:23;;;;;;;1.15;0.80;;;24.60;99.90;;;;;;4755577;30;20728;-95
2021/07/15 13:17:33;;;;;;;0.75;0.68;;;24.50;99.90;;;;;;4739214;30;20635;-93
2021/07/15 13:20:19;;;;;;;2.08;0.93;;;24.60;99.90;;;;;;4740122;30;20184;-95
2021/07/15 13:22:59;;;;;;;0.93;0.63;;;24.60;99.90;;;;;;4741812;30;20181;-95
2021/07/15 13:25:27;;;;;;;1.15;0.68;;;24.70;99.60;;;;;;4741518;30;20184;-95
2021/07/15 13:28:17;;;;;;;0.63;0.57;;;24.70;99.90;;;;;;4740236;30;20213;-94
2021/07/15 13:31:19;;;;;;;3.80;0.80;;;24.80;99.90;;;;;;4740514;30;20189;-93
2021/07/15 13:33:52;;;;;;;0.95;0.80;;;24.80;99.90;;;;;;4739105;30;20191;-93
2021/07/15 13:39:51;;;;;;;3.40;1.00;;;24.80;98.90;;;;;;4755144;30;20224;-94
2021/07/15 13:43:11;;;;;;;1.33;0.70;;;24.80;98.30;;;;;;4742076;30;20187;-94
2021/07/15 13:45:53;;;;;;;0.82;0.70;;;24.80;99.30;;;;;;4741521;30;20192;-96
2021/07/15 13:48:27;;;;;;;1.15;0.80;;;24.90;99.40;;;;;;4740269;30;20215;-95
2021/07/15 13:51:23;;;;;;;0.95;0.88;;;25.00;99.90;;;;;;4738317;30;20187;-94
2021/07/15 13:53:51;;;;;;;0.90;0.80;;;25.00;99.00;;;;;;4737187;30;20284;-93
2021/07/15 13:56:22;;;;;;;1.25;0.80;;;25.00;99.90;;;;;;4737472;30;20663;-93
2021/07/15 13:58:49;;;;;;;1.05;0.90;;;25.00;99.60;;;;;;4739572;30;20220;-94
2021/07/15 14:01:28;;;;;;;1.05;0.60;;;25.10;99.30;;;;;;4743973;30;20240;-94
2021/07/15 14:03:56;;;;;;;1.33;0.88;;;25.20;99.50;;;;;;4744721;30;20180;-95
2021/07/15 14:06:22;;;;;;;1.67;0.80;;;25.10;98.90;;;;;;4743779;30;20545;-94
2021/07/15 14:08:59;;;;;;;1.95;0.73;;;25.10;98.90;;;;;;4743273;30;20208;-93
2021/07/15 14:11:43;;;;;;;2.25;0.90;;;24.90;99.90;;;;;;4744056;30;20193;-95
2021/07/15 14:14:12;;;;;;;1.98;0.93;;;24.90;99.90;;;;;;4742795;30;20236;-94
2021/07/15 14:16:39;;;;;;;0.90;0.70;;;24.70;99.30;;;;;;4743940;30;20184;-94
2021/07/15 14:19:06;;;;;;;2.25;0.95;;;24.70;99.30;;;;;;4743260;30;20217;-95
2021/07/15 14:21:34;;;;;;;0.70;0.70;;;24.70;99.90;;;;;;4742102;30;20183;-96
2021/07/15 14:24:04;;;;;;;3.40;0.95;;;24.70;99.90;;;;;;4741161;30;20203;-94
2021/07/15 14:26:56;;;;;;;0.98;0.90;;;24.80;99.80;;;;;;4741808;30;20173;-94
2021/07/15 14:29:56;;;;;;;0.80;0.70;;;24.80;98.50;;;;;;4741789;30;20240;-95
2021/07/15 14:32:23;;;;;;;3.92;0.80;;;24.90;99.40;;;;;;4736830;30;20226;-94
2021/07/15 14:34:49;;;;;;;1.08;0.85;;;24.90;99.50;;;;;;4741707;30;20208;-96
2021/07/15 14:37:17;;;;;;;3.58;0.80;;;24.70;99.70;;;;;;4742074;30;20204;-93
2021/07/15 14:39:43;;;;;;;1.65;0.90;;;24.60;99.40;;;;;;4742224;30;20596;-93
2021/07/15 14:42:15;;;;;;;1.10;0.90;;;24.50;99.90;;;;;;4742443;30;20181;-95
2021/07/15 14:48:06;;;;;;;2.85;0.90;;;24.50;99.90;;;;;;4758267;30;20203;-94
2021/07/15 14:50:43;;;;;;;1.00;0.90;;;24.60;99.50;;;;;;4742742;30;20180;-93
2021/07/15 14:53:11;;;;;;;1.10;0.90;;;24.70;99.60;;;;;;4743922;30;20682;-96
2021/07/15 14:55:51;;;;;;;0.70;0.60;;;24.70;99.20;;;;;;4744738;30;20623;-96
2021/07/15 14:58:19;;;;;;;3.38;1.00;;;24.70;99.60;;;;;;4746295;30;20230;-96
2021/07/15 15:00:46;;;;;;;1.98;1.13;;;24.70;99.90;;;;;;4744112;30;20188;-96
2021/07/15 15:03:12;;;;;;;1.05;0.95;;;24.70;99.90;;;;;;4742114;30;20225;-96
2021/07/15 15:05:38;;;;;;;4.28;0.85;;;24.70;99.20;;;;;;4742378;30;20177;-93
2021/07/15 15:08:05;;;;;;;9.20;1.10;;;24.80;99.90;;;;;;4739358;30;20614;-93
2021/07/15 15:10:31;;;;;;;6.93;1.08;;;24.80;99.90;;;;;;4738108;30;20185;-93
2021/07/15 15:12:56;;;;;;;2.88;1.02;;;24.80;99.90;;;;;;4737732;30;20253;-96
2021/07/15 15:15:23;;;;;;;2.45;0.70;;;24.80;99.90;;;;;;4741202;30;20738;-96
2021/07/15 15:17:57;;;;;;;0.70;0.70;;;24.80;98.90;;;;;;4738373;30;20189;-96
2021/07/15 15:20:23;;;;;;;1.40;0.90;;;24.70;99.20;;;;;;4750987;30;20177;-96
2021/07/15 15:22:53;;;;;;;1.48;0.70;;;24.70;98.70;;;;;;4748309;30;20185;-94
2021/07/15 15:25:19;;;;;;;3.40;0.80;;;24.70;98.40;;;;;;4737645;30;20185;-95
2021/07/15 15:27:44;;;;;;;1.38;0.73;;;24.70;99.50;;;;;;4736361;30;20705;-94
2021/07/15 15:30:11;;;;;;;1.65;0.80;;;24.70;99.80;;;;;;4736124;30;20185;-94
2021/07/15 15:32:38;;;;;;;2.35;0.82;;;24.70;99.30;;;;;;4736421;30;20181;-95
2021/07/15 15:35:07;;;;;;;1.73;1.00;;;24.70;99.40;;;;;;4736099;30;20186;-94
2021/07/15 15:37:33;;;;;;;2.60;1.02;;;24.70;99.90;;;;;;4735134;30;20181;-95
2021/07/15 15:40:01;;;;;;;1.33;0.90;;;24.80;99.60;;;;;;4737568;30;20212;-96
2021/07/15 15:42:27;;;;;;;1.58;0.90;;;24.80;99.70;;;;;;4739572;30;20260;-96
2021/07/15 15:45:04;;;;;;;3.38;1.13;;;24.90;99.90;;;;;;4738028;30;20756;-96
2021/07/15 15:47:30;;;;;;;1.25;0.80;;;24.90;99.90;;;;;;4739942;30;20184;-96
2021/07/15 15:49:57;;;;;;;1.90;0.73;;;24.90;99.90;;;;;;4736604;30;20209;-95
2021/07/15 15:52:23;;;;;;;4.20;0.90;;;24.80;99.70;;;;;;4737654;30;20182;-96
2021/07/15 15:54:49;;;;;;;3.13;1.02;;;24.80;99.20;;;;;;4739820;30;20592;-96
2021/07/15 15:57:15;;;;;;;1.83;1.00;;;24.80;99.90;;;;;;4739407;30;20181;-96
2021/07/15 15:59:42;;;;;;;4.28;1.00;;;24.70;99.90;;;;;;4737494;30;20217;-96
2021/07/15 16:02:08;;;;;;;2.17;1.00;;;24.70;99.90;;;;;;4737722;30;20193;-96
2021/07/15 16:04:34;;;;;;;3.40;0.98;;;24.70;99.90;;;;;;4738766;30;20565;-96
2021/07/15 16:07:00;;;;;;;0.80;0.80;;;24.60;99.90;;;;;;4740629;30;20216;-96
2021/07/15 16:09:27;;;;;;;3.45;1.10;;;24.50;99.90;;;;;;4739406;30;20560;-96
2021/07/15 16:11:53;;;;;;;1.95;1.10;;;24.60;99.90;;;;;;4740512;30;20267;-96
2021/07/15 16:14:25;;;;;;;1.63;0.93;;;24.50;99.90;;;;;;4741816;30;20291;-96
2021/07/15 16:16:53;;;;;;;2.83;1.15;;;24.50;99.90;;;;;;4743939;30;20197;-96
2021/07/15 16:19:23;;;;;;;1.52;1.15;;;24.50;99.90;;;;;;4746672;30;20213;-96
2021/07/15 16:21:49;;;;;;;1.48;0.98;;;24.50;99.90;;;;;;4739972;30;20184;-96
2021/07/15 16:24:15;;;;;;;2.08;0.90;;;24.50;99.90;;;;;;4738832;30;20180;-93
2021/07/15 16:26:42;;;;;;;1.10;1.00;;;24.60;99.90;;;;;;4735802;30;20587;-93
2021/07/15 16:29:07;;;;;;;2.45;1.05;;;24.60;99.90;;;;;;4735272;30;20273;-94
2021/07/15 16:31:33;;;;;;;1.10;1.00;;;24.60;99.90;;;;;;4735345;30;20181;-95
2021/07/15 16:34:02;;;;;;;1.60;1.05;;;24.60;99.90;;;;;;4735325;30;20173;-94
2021/07/15 16:36:29;;;;;;;0.73;0.73;;;24.60;99.90;;;;;;4736291;30;20193;-96
2021/07/15 16:39:01;;;;;;;0.95;0.88;;;24.60;99.90;;;;;;4743801;30;20319;-96
2021/07/15 16:41:26;;;;;;;2.15;1.10;;;24.60;99.90;;;;;;4744112;30;20191;-96
2021/07/15 16:43:52;;;;;;;2.55;1.00;;;24.60;99.90;;;;;;4740158;30;20283;-96
2021/07/15 16:46:19;;;;;;;2.60;1.10;;;24.60;99.90;;;;;;4741867;30;20189;-96
2021/07/15 16:48:45;;;;;;;1.92;1.20;;;24.70;99.90;;;;;;4744919;30;20209;-96
2021/07/15 16:51:12;;;;;;;1.45;0.88;;;24.70;99.90;;;;;;4742137;30;20226;-96
2021/07/15 16:53:40;;;;;;;1.80;1.20;;;24.70;99.90;;;;;;4746467;30;20189;-96
2021/07/15 16:56:10;;;;;;;1.98;1.08;;;24.70;99.90;;;;;;4743404;30;20185;-96
2021/07/15 16:58:36;;;;;;;1.20;1.10;;;24.70;99.90;;;;;;4743943;30;20213;-96
2021/07/15 17:01:04;;;;;;;1.17;0.90;;;24.60;99.90;;;;;;4745578;30;20290;-96
2021/07/15 17:03:30;;;;;;;1.58;0.90;;;24.60;99.90;;;;;;4745190;30;20189;-96
2021/07/15 17:05:56;;;;;;;1.90;1.10;;;24.50;99.90;;;;;;4743002;30;20185;-96
2021/07/15 17:08:22;;;;;;;2.28;0.95;;;24.50;99.90;;;;;;4737902;30;20236;-96
2021/07/15 17:10:47;;;;;;;0.95;0.82;;;24.50;99.90;;;;;;4738387;30;20197;-96
2021/07/15 17:13:13;;;;;;;1.75;1.10;;;24.40;99.90;;;;;;4737608;30;20232;-96
2021/07/15 17:15:39;;;;;;;5.75;1.20;;;24.40;99.90;;;;;;4740152;30;20730;-96
2021/07/15 17:18:09;;;;;;;2.47;1.10;;;24.30;99.90;;;;;;4737183;30;20229;-96
2021/07/15 17:20:37;;;;;;;3.25;1.05;;;24.20;99.90;;;;;;4741986;30;20272;-96
2021/07/15 17:23:03;;;;;;;3.03;1.00;;;24.10;99.90;;;;;;4742257;30;20260;-96
2021/07/15 17:25:29;;;;;;;2.85;1.10;;;24.00;99.90;;;;;;4742513;30;20173;-96
2021/07/15 17:27:56;;;;;;;1.42;1.00;;;24.00;99.90;;;;;;4752424;30;20194;-96